createdAt,value
2023-04-25T00:01:40.333Z,91.55
2023-04-25T00:06:45.545Z,90.43
2023-04-25T00:11:50.578Z,91.24
2023-04-25T00:16:59.324Z,92.12
2023-04-25T00:22:04.427Z,91.78
2023-04-25T00:27:09.394Z,91.74
2023-04-25T00:32:16.935Z,88.54
2023-04-25T00:37:23.300Z,90.48
2023-04-25T00:42:29.115Z,92.97
2023-04-25T00:47:37.336Z,93.40
2023-04-25T00:52:44.645Z,93.19
2023-04-25T00:57:51.501Z,92.45
2023-04-25T01:02:59.736Z,93.43
2023-04-25T01:08:05.513Z,95.59
2023-04-25T01:13:11.358Z,97.15
2023-04-25T01:18:19.399Z,96.75
2023-04-25T01:23:28.861Z,96.52
2023-04-25T01:28:34.167Z,98.51
2023-04-25T01:33:41.706Z,98.61
2023-04-25T01:38:50.233Z,98.58
2023-04-25T01:43:58.338Z,98.85
2023-04-25T01:49:03.407Z,100.00
2023-04-25T01:54:12.323Z,99.96
2023-04-25T01:59:17.553Z,100.00
2023-04-25T02:04:41.076Z,100.00
2023-04-25T02:09:52.221Z,100.00
2023-04-25T02:14:58.658Z,100.00
2023-04-25T02:20:18.471Z,100.00
2023-04-25T02:25:26.572Z,100.00
2023-04-25T02:30:32.508Z,100.00
2023-04-25T02:35:37.650Z,100.00
2023-04-25T02:40:45.553Z,100.00
2023-04-25T02:45:50.594Z,100.00
2023-04-25T02:50:56.890Z,100.00
2023-04-25T02:56:05.776Z,100.00
2023-04-25T03:01:10.870Z,100.00
2023-04-25T03:06:16.041Z,100.00
2023-04-25T03:11:24.199Z,99.99
2023-04-25T03:16:29.471Z,99.23
2023-04-25T03:21:35.785Z,98.95
2023-04-25T03:26:44.601Z,98.05
2023-04-25T03:31:50.397Z,98.24
2023-04-25T03:36:55.532Z,99.12
2023-04-25T03:42:04.127Z,99.80
2023-04-25T03:47:10.307Z,98.10
2023-04-25T03:52:16.742Z,98.61
2023-04-25T03:57:26.388Z,98.80
2023-04-25T04:02:32.489Z,99.11
2023-04-25T04:07:40.968Z,98.51
2023-04-25T04:12:52.471Z,97.11
2023-04-25T04:17:57.702Z,96.51
2023-04-25T04:23:03.310Z,93.42
2023-04-25T04:28:12.308Z,89.79
2023-04-25T04:33:30.813Z,92.12
2023-04-25T04:38:42.151Z,91.64
2023-04-25T04:43:56.022Z,87.32
2023-04-25T04:49:18.702Z,69.64
2023-04-25T04:54:37.696Z,65.45
2023-04-25T05:00:12.168Z,63.66
2023-04-25T05:05:36.205Z,61.95
2023-04-25T05:11:00.086Z,59.94
2023-04-25T05:16:16.730Z,57.93
2023-04-25T05:21:34.429Z,59.77
2023-04-25T05:26:52.492Z,57.82
2023-04-25T05:32:03.001Z,57.60
2023-04-25T05:37:11.360Z,60.08
2023-04-25T05:42:37.059Z,58.47
2023-04-25T05:48:04.237Z,57.62
2023-04-25T05:53:36.978Z,57.80
2023-04-25T05:58:42.684Z,60.60
2023-04-25T06:03:54.244Z,55.27
2023-04-25T06:09:08.208Z,58.11
2023-04-25T06:14:18.652Z,57.73
2023-04-25T06:19:30.401Z,57.40
2023-04-25T06:24:45.344Z,57.58
2023-04-25T06:29:50.839Z,55.65
2023-04-25T06:34:58.632Z,58.40
2023-04-25T06:40:04.045Z,56.10
2023-04-25T06:45:10.551Z,57.82
2023-04-25T06:50:18.318Z,56.62
2023-04-25T06:55:23.971Z,54.23
2023-04-25T07:01:16.892Z,58.03
2023-04-25T07:06:29.675Z,56.36
2023-04-25T07:11:34.905Z,57.59
2023-04-25T07:16:40.115Z,55.10
2023-04-25T07:21:47.978Z,60.89
2023-04-25T07:26:54.888Z,60.06
2023-04-25T07:32:10.039Z,59.55
2023-04-25T07:37:20.969Z,59.96
2023-04-25T07:42:45.757Z,63.24
2023-04-25T07:47:55.140Z,62.40
2023-04-25T07:53:06.488Z,60.17
2023-04-25T07:58:32.267Z,63.03
2023-04-25T08:03:44.245Z,61.19
2023-04-25T08:09:05.311Z,61.75
2023-04-25T08:14:18.069Z,65.54
2023-04-25T08:19:26.476Z,66.88
2023-04-25T08:24:35.669Z,67.81
2023-04-25T08:29:45.316Z,67.14
2023-04-25T08:34:53.337Z,68.09
2023-04-25T08:40:04.169Z,69.21
2023-04-25T08:45:26.276Z,71.24
2023-04-25T08:50:32.035Z,71.21
2023-04-25T08:55:41.687Z,71.94
2023-04-25T09:00:51.452Z,70.39
2023-04-25T09:06:03.511Z,71.37
2023-04-25T09:11:13.703Z,70.79
2023-04-25T09:16:23.346Z,71.97
2023-04-25T09:21:52.619Z,70.70
2023-04-25T09:27:02.779Z,74.99
2023-04-25T09:32:32.418Z,74.85
2023-04-25T09:37:38.313Z,76.14
2023-04-25T09:43:04.640Z,75.79
2023-04-25T09:48:10.279Z,79.20
2023-04-25T09:53:21.862Z,76.21
2023-04-25T09:58:52.593Z,75.26
2023-04-25T10:04:05.091Z,77.55
2023-04-25T10:09:44.238Z,74.73
2023-04-25T10:14:52.524Z,75.41
2023-04-25T10:19:59.122Z,76.54
2023-04-25T10:25:09.596Z,75.40
2023-04-25T10:30:19.494Z,73.62
2023-04-25T10:35:29.446Z,72.97
2023-04-25T10:40:35.128Z,76.15
2023-04-25T10:46:03.187Z,76.67
2023-04-25T10:51:12.632Z,76.94
2023-04-25T10:56:23.188Z,77.65
2023-04-25T11:01:39.524Z,78.73
2023-04-25T11:06:58.239Z,80.18
2023-04-25T11:12:18.879Z,81.78
2023-04-25T11:17:30.547Z,83.36
2023-04-25T11:22:38.286Z,86.66
2023-04-25T11:27:54.346Z,91.87
2023-04-25T11:33:04.074Z,93.15
2023-04-25T11:38:12.375Z,89.46
2023-04-25T11:43:19.517Z,86.37
2023-04-25T11:48:31.363Z,83.15
2023-04-25T11:53:37.600Z,81.89
2023-04-25T11:59:00.193Z,77.97
2023-04-25T12:04:18.355Z,78.66
2023-04-25T12:09:34.209Z,79.02
2023-04-25T12:14:40.129Z,77.00
2023-04-25T12:19:50.871Z,75.21
2023-04-25T12:24:58.020Z,76.65
2023-04-25T12:30:06.168Z,79.84
2023-04-25T12:35:16.151Z,79.98
2023-04-25T12:40:23.614Z,80.99
2023-04-25T12:45:31.303Z,80.91
2023-04-25T12:50:38.987Z,81.30
2023-04-25T12:55:47.843Z,81.17
2023-04-25T13:01:00.639Z,76.01
2023-04-25T13:06:12.125Z,75.49
2023-04-25T13:11:17.894Z,71.45
2023-04-25T13:16:25.871Z,74.85
2023-04-25T13:21:35.005Z,76.63
2023-04-25T13:26:40.213Z,77.11
2023-04-25T13:31:46.218Z,75.79
2023-04-25T13:36:56.858Z,76.13
2023-04-25T13:42:03.148Z,76.72
2023-04-25T13:47:08.573Z,76.51
2023-04-25T13:52:17.932Z,76.82
2023-04-25T13:57:23.567Z,74.10
2023-04-25T14:02:28.941Z,73.62
2023-04-25T14:07:38.235Z,72.88
2023-04-25T14:12:44.445Z,72.63
2023-04-25T14:17:50.842Z,72.13
2023-04-25T14:23:01.867Z,70.73
2023-04-25T14:28:07.482Z,72.20
2023-04-25T14:33:12.771Z,71.99
2023-04-25T14:38:24.522Z,71.94
2023-04-25T14:43:41.434Z,72.47
2023-04-25T14:48:46.866Z,70.41
2023-04-25T14:53:54.729Z,71.25
2023-04-25T14:59:00.434Z,69.89
2023-04-25T15:04:08.071Z,68.83
2023-04-25T15:09:19.336Z,67.97
2023-04-25T15:14:24.630Z,68.51
2023-04-25T15:19:30.725Z,66.88
2023-04-25T15:24:38.717Z,66.25
2023-04-25T15:29:50.492Z,66.20
2023-04-25T15:34:58.504Z,66.67
2023-04-25T15:40:13.821Z,64.78
2023-04-25T15:45:19.656Z,64.95
2023-04-25T15:50:25.240Z,65.00
2023-04-25T15:55:34.138Z,64.98
2023-04-25T16:00:40.714Z,65.67
2023-04-25T16:05:46.247Z,65.18
2023-04-25T16:10:54.105Z,65.99
2023-04-25T16:16:00.415Z,65.73
2023-04-25T16:21:06.745Z,65.47
2023-04-25T16:26:14.936Z,65.90
2023-04-25T16:31:20.143Z,64.32
2023-04-25T16:36:25.457Z,64.24
2023-04-25T16:41:33.485Z,63.19
2023-04-25T16:46:38.928Z,63.11
2023-04-25T16:51:44.307Z,61.79
2023-04-25T16:56:52.787Z,61.57
2023-04-25T17:02:00.550Z,61.97
2023-04-25T17:07:05.803Z,63.83
2023-04-25T17:12:14.382Z,63.98
2023-04-25T17:17:21.562Z,64.98
2023-04-25T17:22:27.781Z,64.84
2023-04-25T17:27:36.355Z,64.86
2023-04-25T17:32:45.313Z,63.69
2023-04-25T17:37:51.660Z,65.34
2023-04-25T17:42:59.450Z,65.67
2023-04-25T17:48:04.793Z,65.81
2023-04-25T17:53:10.298Z,65.61
2023-04-25T17:58:18.266Z,64.95
2023-04-25T18:03:23.544Z,64.19
2023-04-25T18:08:31.511Z,63.56
2023-04-25T18:13:53.500Z,63.95
2023-04-25T18:19:05.622Z,64.15
2023-04-25T18:24:14.093Z,64.57
2023-04-25T18:29:35.767Z,65.54
2023-04-25T18:34:50.369Z,65.83
2023-04-25T18:39:58.740Z,65.67
2023-04-25T18:45:08.353Z,65.66
2023-04-25T18:50:20.481Z,66.24
2023-04-25T18:55:28.141Z,66.40
2023-04-25T19:00:39.372Z,66.69
2023-04-25T19:05:46.951Z,67.13
2023-04-25T19:10:53.819Z,67.11
2023-04-25T19:16:01.717Z,68.49
2023-04-25T19:21:11.474Z,68.96
2023-04-25T19:26:18.608Z,70.12
2023-04-25T19:31:27.736Z,70.91
2023-04-25T19:36:35.737Z,71.11
2023-04-25T19:41:41.801Z,72.25
2023-04-25T19:46:49.840Z,72.62
2023-04-25T19:51:56.386Z,72.96
2023-04-25T19:57:01.955Z,73.01
2023-04-25T20:02:11.629Z,73.48
2023-04-25T20:07:18.464Z,73.95
2023-04-25T20:12:23.739Z,73.28
2023-04-25T20:17:32.697Z,73.94
2023-04-25T20:22:40.728Z,74.93
2023-04-25T20:27:53.429Z,75.53
2023-04-25T20:33:09.530Z,75.39
2023-04-25T20:38:14.747Z,75.49
2023-04-25T20:43:20.528Z,75.64
2023-04-25T20:48:28.237Z,76.00
2023-04-25T20:53:34.886Z,76.06
2023-04-25T20:58:44.619Z,75.60
2023-04-25T21:03:54.715Z,76.90
2023-04-25T21:08:59.904Z,76.70
2023-04-25T21:14:05.513Z,76.95
2023-04-25T21:19:14.202Z,77.65
2023-04-25T21:24:22.287Z,77.25
2023-04-25T21:29:28.184Z,77.76
2023-04-25T21:34:36.042Z,78.12
2023-04-25T21:39:41.481Z,78.55
2023-04-25T21:44:49.585Z,78.39
2023-04-25T21:49:59.244Z,78.81
2023-04-25T21:55:07.132Z,78.49
2023-04-25T22:00:21.264Z,79.82
2023-04-25T22:05:29.620Z,80.17
2023-04-25T22:10:34.950Z,80.63
2023-04-25T22:15:42.607Z,79.95
2023-04-25T22:20:50.348Z,80.95
2023-04-25T22:26:02.805Z,80.17
2023-04-25T22:31:11.169Z,81.19
2023-04-25T22:36:20.150Z,81.24
2023-04-25T22:41:25.302Z,80.83
2023-04-25T22:46:31.677Z,80.62
2023-04-25T22:51:39.373Z,80.97
2023-04-25T22:56:45.432Z,81.74
2023-04-25T23:01:51.649Z,82.09
2023-04-25T23:07:01.918Z,82.80
2023-04-25T23:12:07.273Z,82.84
2023-04-25T23:17:12.388Z,82.79
2023-04-25T23:22:20.003Z,84.54
2023-04-25T23:27:27.338Z,84.74
2023-04-25T23:32:32.642Z,84.54
2023-04-25T23:37:43.424Z,84.76
2023-04-25T23:42:48.495Z,85.39
2023-04-25T23:47:53.731Z,86.10
2023-04-25T23:53:01.566Z,86.54
2023-04-25T23:58:06.596Z,87.52
